Time;durP1;ratioP1;P1;durP2;ratioP2;P2;SDS_P1;SDS_P2;PMS_P1;PMS_P2;Temp;Humidity;BMP_temperature;BMP_pressure;BME280_temperature;BME280_humidity;BME280_pressure;Samples;Min_cycle;Max_cycle;Signal;HPM_P1;HPM_P2
2021/10/27 00:01:27;;;;;;;23.90;13.80;;;;;;;10.87;47.07;101647.52;117360;1185;23441;-60
2021/10/27 00:03:56;;;;;;;22.90;13.30;;;;;;;10.88;47.15;101639.64;117416;1183;21889;-58
2021/10/27 00:06:25;;;;;;;24.70;14.00;;;;;;;10.90;47.33;101637.19;117455;1186;21853;-59
2021/10/27 00:08:53;;;;;;;25.30;12.90;;;;;;;10.93;47.27;101635.80;117391;1182;23442;-60
2021/10/27 00:11:21;;;;;;;21.30;12.30;;;;;;;11.04;47.01;101634.13;118711;1184;23469;-60
2021/10/27 00:13:50;;;;;;;18.40;11.50;;;;;;;10.95;47.27;101632.66;117319;1185;23560;-59
2021/10/27 00:16:19;;;;;;;21.80;11.80;;;;;;;10.94;47.30;101634.59;117340;1185;21858;-59
2021/10/27 00:18:47;;;;;;;19.80;11.60;;;;;;;10.96;47.26;101632.84;117443;1176;21888;-58
2021/10/27 00:21:15;;;;;;;19.00;10.80;;;;;;;10.99;47.18;101637.95;117446;1184;21868;-59
2021/10/27 00:23:45;;;;;;;20.60;11.20;;;;;;;11.00;47.27;101633.75;117320;1185;23498;-59
2021/10/27 00:26:14;;;;;;;19.30;11.40;;;;;;;11.02;47.25;101633.77;117335;1185;22644;-58
2021/10/27 00:28:42;;;;;;;20.50;11.50;;;;;;;11.04;47.25;101626.73;117396;1182;23442;-59
2021/10/27 00:31:11;;;;;;;23.00;11.90;;;;;;;11.05;47.26;101624.46;117403;1185;23570;-60
2021/10/27 00:33:40;;;;;;;18.70;10.80;;;;;;;11.06;47.27;101619.55;117382;1182;22655;-60
2021/10/27 00:36:08;;;;;;;18.40;10.80;;;;;;;11.08;47.38;101620.61;117367;1180;21867;-58
2021/10/27 00:38:36;;;;;;;21.10;11.20;;;;;;;11.06;47.33;101618.66;117514;1185;23442;-60
2021/10/27 00:41:07;;;;;;;17.50;10.40;;;;;;;11.08;47.38;101615.88;117375;1185;21842;-60
2021/10/27 00:43:37;;;;;;;;;;;;;;;11.08;47.25;101618.15;117397;1182;21891;-58
2021/10/27 00:46:07;;;;;;;11.60;7.90;;;;;;;11.09;47.51;101617.98;117435;1185;24152;-59
2021/10/27 00:48:38;;;;;;;10.50;6.90;;;;;;;11.10;47.34;101621.15;117405;1179;23445;-59
2021/10/27 00:51:07;;;;;;;11.90;7.80;;;;;;;11.10;47.40;101621.16;117348;1184;22931;-59
2021/10/27 00:53:36;;;;;;;10.80;6.70;;;;;;;11.11;47.51;101620.98;117363;1184;23544;-60
2021/10/27 00:56:07;;;;;;;14.90;7.50;;;;;;;11.12;47.60;101616.25;117355;1185;24159;-59
2021/10/27 00:58:36;;;;;;;12.30;6.80;;;;;;;11.14;47.58;101612.56;117376;1182;21848;-58
2021/10/27 01:01:05;;;;;;;8.40;6.10;;;;;;;11.14;47.53;101611.17;117387;1183;23563;-59
2021/10/27 01:03:35;;;;;;;11.90;6.30;;;;;;;11.15;47.64;101612.23;117329;1185;22649;-58
2021/10/27 01:06:05;;;;;;;10.50;6.50;;;;;;;11.16;47.63;101606.61;117346;1185;21893;-58
2021/10/27 01:08:33;;;;;;;9.30;6.00;;;;;;;11.17;47.48;101606.79;117327;1188;21855;-59
2021/10/27 01:11:03;;;;;;;9.90;6.30;;;;;;;11.20;47.63;101601.00;117396;1183;21857;-59
2021/10/27 01:13:33;;;;;;;8.30;5.60;;;;;;;11.19;47.65;101602.23;117432;1185;22812;-59
2021/10/27 01:16:09;;;;;;;9.30;5.80;;;;;;;11.20;47.69;101602.59;117407;1182;23465;-59
2021/10/27 01:18:40;;;;;;;7.90;5.10;;;;;;;11.21;47.64;101604.17;117411;1182;23449;-60
2021/10/27 01:21:09;;;;;;;9.20;5.70;;;;;;;11.23;47.60;101603.31;117450;1182;23535;-59
2021/10/27 01:23:37;;;;;;;7.20;4.60;;;;;;;11.25;47.57;101603.84;117356;1185;22728;-59
2021/10/27 01:26:06;;;;;;;10.60;5.40;;;;;;;11.28;47.61;101602.62;117381;1184;21854;-60
2021/10/27 01:28:39;;;;;;;8.60;5.40;;;;;;;11.29;47.57;101603.33;117418;1176;21858;-58
2021/10/27 01:31:09;;;;;;;8.90;5.00;;;;;;;11.31;47.60;101600.17;117326;1182;22622;-59
2021/10/27 01:33:38;;;;;;;7.50;4.80;;;;;;;11.31;47.47;101599.98;117350;1183;21858;-61
2021/10/27 01:36:06;;;;;;;9.50;5.00;;;;;;;11.28;47.71;101601.91;117375;1183;21852;-59
2021/10/27 01:38:35;;;;;;;10.00;4.60;;;;;;;11.28;47.79;101594.89;117416;1189;21868;-60
2021/10/27 01:41:03;;;;;;;10.50;5.00;;;;;;;11.27;47.62;101589.08;117392;1182;24141;-61
2021/10/27 01:43:45;;;;;;;7.30;4.20;;;;;;;11.26;47.70;101585.21;117355;1186;21853;-61
2021/10/27 01:46:13;;;;;;;7.00;4.20;;;;;;;11.25;47.69;101584.16;117345;1183;21913;-60
2021/10/27 01:48:41;;;;;;;8.00;5.00;;;;;;;11.25;47.76;101585.05;117413;1185;22932;-60
2021/10/27 01:51:10;;;;;;;7.10;4.60;;;;;;;11.24;47.82;101585.92;117401;1185;23474;-60
2021/10/27 01:53:38;;;;;;;8.50;4.10;;;;;;;11.23;47.91;101580.98;117408;1185;22932;-60
2021/10/27 01:56:06;;;;;;;6.60;4.20;;;;;;;11.22;47.88;101581.00;117304;1185;22620;-60
2021/10/27 01:58:34;;;;;;;8.40;4.50;;;;;;;11.25;47.90;101578.20;117385;1185;23442;-60
2021/10/27 02:01:03;;;;;;;7.00;4.20;;;;;;;11.27;47.72;101577.33;117354;1185;24139;-60
2021/10/27 02:03:32;;;;;;;7.50;4.10;;;;;;;11.28;47.74;101581.52;117334;1183;22924;-59
2021/10/27 02:06:00;;;;;;;7.70;4.30;;;;;;;11.28;47.69;101585.23;117359;1184;23566;-59
2021/10/27 02:08:28;;;;;;;9.40;4.90;;;;;;;11.30;47.77;101585.23;117402;1186;21873;-59
2021/10/27 02:10:57;;;;;;;6.20;4.10;;;;;;;11.31;47.63;101588.05;117394;1182;24160;-59
2021/10/27 02:13:45;;;;;;;8.20;4.50;;;;;;;11.34;47.67;101586.30;117356;1185;23560;-60
2021/10/27 02:16:13;;;;;;;6.80;4.40;;;;;;;11.35;47.74;101588.95;117375;1185;23439;-60
2021/10/27 02:18:42;;;;;;;9.40;5.50;;;;;;;11.35;47.72;101590.35;117406;1181;22915;-58
2021/10/27 02:21:10;;;;;;;12.60;5.10;;;;;;;11.34;47.62;101590.52;117369;1185;22703;-60
2021/10/27 02:23:38;;;;;;;10.80;4.70;;;;;;;11.35;47.79;101587.89;117386;1182;21858;-60
2021/10/27 02:26:07;;;;;;;10.60;5.40;;;;;;;11.35;47.74;101589.46;117447;1185;24162;-59
2021/10/27 02:28:36;;;;;;;11.30;6.10;;;;;;;11.35;47.78;101584.20;117384;1183;21858;-59
2021/10/27 02:31:05;;;;;;;12.20;6.60;;;;;;;11.35;47.72;101587.88;117396;1185;22640;-60
2021/10/27 02:33:34;;;;;;;11.30;6.30;;;;;;;11.35;47.78;101586.66;117343;1182;23458;-58
2021/10/27 02:36:02;;;;;;;13.50;6.90;;;;;;;11.36;47.85;101591.41;117357;1185;23557;-60
2021/10/27 02:38:45;;;;;;;10.00;6.00;;;;;;;11.38;47.78;101590.37;117282;1185;21857;-60
2021/10/27 02:41:14;;;;;;;12.80;6.40;;;;;;;11.40;47.79;101598.28;117444;1182;23079;-58
2021/10/27 02:43:43;;;;;;;10.60;6.10;;;;;;;11.41;47.93;101598.10;117385;1186;22899;-58
2021/10/27 02:46:11;;;;;;;10.10;6.20;;;;;;;11.42;47.97;101597.59;117305;1182;24168;-60
2021/10/27 02:48:40;;;;;;;11.00;5.70;;;;;;;11.43;47.97;101601.45;117358;1186;21961;-58
2021/10/27 02:51:09;;;;;;;10.50;6.40;;;;;;;11.44;48.06;101597.59;117356;1182;21864;-58
2021/10/27 02:53:37;;;;;;;10.60;6.00;;;;;;;11.44;47.80;101594.77;117444;1185;21848;-60
2021/10/27 02:56:05;;;;;;;11.50;6.80;;;;;;;11.44;48.05;101594.77;117358;1185;21874;-60
2021/10/27 02:58:33;;;;;;;14.30;7.60;;;;;;;11.44;48.03;101594.60;117342;1182;21996;-59
2021/10/27 03:01:02;;;;;;;12.40;7.80;;;;;;;11.42;48.10;101594.26;117439;1185;23593;-59
2021/10/27 03:03:30;;;;;;;11.50;7.50;;;;;;;11.42;48.21;101594.24;117347;1183;23543;-60
2021/10/27 03:06:00;;;;;;;11.60;7.10;;;;;;;11.42;48.07;101592.67;117299;1186;22844;-60
2021/10/27 03:08:29;;;;;;;13.90;8.10;;;;;;;11.46;48.08;101593.20;117400;1182;23474;-60
2021/10/27 03:10:57;;;;;;;17.60;8.00;;;;;;;11.44;48.12;101589.69;117456;1186;24174;-60
2021/10/27 03:13:25;;;;;;;21.00;7.90;;;;;;;11.45;48.13;101588.45;117589;1186;21867;-60
2021/10/27 03:15:54;;;;;;;43.70;12.20;;;;;;;11.47;48.15;101588.64;117357;1183;21857;-60
2021/10/27 03:18:26;;;;;;;43.70;10.70;;;;;;;11.49;48.20;101594.25;117379;1183;23468;-58
2021/10/27 03:20:54;;;;;;;37.10;9.90;;;;;;;11.49;48.25;101592.85;117336;1185;21861;-59
2021/10/27 03:23:23;;;;;;;48.20;9.90;;;;;;;11.52;48.15;101590.75;117368;1183;24166;-60
2021/10/27 03:25:51;;;;;;;41.20;10.00;;;;;;;11.57;48.21;101588.66;117386;1184;24152;-60
2021/10/27 03:28:19;;;;;;;51.50;10.50;;;;;;;11.58;48.14;101590.60;117390;1185;23441;-59
2021/10/27 03:30:47;;;;;;;38.20;9.60;;;;;;;11.59;48.38;101589.21;117367;1185;23511;-60
2021/10/27 03:33:16;;;;;;;24.40;7.70;;;;;;;11.57;48.37;101585.33;117503;1185;23465;-59
2021/10/27 03:35:44;;;;;;;15.30;6.10;;;;;;;11.58;48.20;101591.12;117416;1185;23468;-58
2021/10/27 03:38:12;;;;;;;16.50;6.30;;;;;;;11.58;48.34;101592.02;117334;1182;23442;-58
2021/10/27 03:40:41;;;;;;;9.00;5.90;;;;;;;11.58;48.37;101591.48;117334;1185;21858;-58
2021/10/27 03:43:10;;;;;;;12.10;6.60;;;;;;;11.58;48.25;101593.94;117517;1182;22912;-59
2021/10/27 03:45:38;;;;;;;11.40;6.10;;;;;;;11.57;48.42;101591.48;117430;1185;25021;-58
2021/10/27 03:48:06;;;;;;;17.10;7.30;;;;;;;11.56;48.40;101589.71;117411;1185;22533;-60
2021/10/27 03:50:36;;;;;;;11.00;6.40;;;;;;;11.55;48.36;101591.11;117504;1186;23465;-60
2021/10/27 03:53:04;;;;;;;11.20;6.70;;;;;;;11.52;48.32;101588.30;117653;1186;24158;-60
2021/10/27 03:55:32;;;;;;;11.20;7.10;;;;;;;11.50;48.42;101586.00;117516;1182;23449;-61
2021/10/27 03:58:01;;;;;;;14.00;7.20;;;;;;;11.50;48.28;101585.30;117470;1184;21849;-61
2021/10/27 04:00:29;;;;;;;14.70;6.40;;;;;;;11.52;48.43;101585.30;117366;1183;23550;-60
2021/10/27 04:02:58;;;;;;;15.00;6.80;;;;;;;11.52;48.27;101585.84;117446;1185;21855;-60
2021/10/27 04:05:26;;;;;;;22.10;8.00;;;;;;;11.51;48.62;101586.70;117450;1185;21845;-60
2021/10/27 04:07:55;;;;;;;21.50;7.50;;;;;;;11.50;48.61;101588.11;117404;1185;23448;-60
2021/10/27 04:10:23;;;;;;;21.10;8.10;;;;;;;11.49;48.27;101586.17;117548;1182;22959;-59
2021/10/27 04:12:52;;;;;;;19.60;7.70;;;;;;;11.48;48.50;101587.77;117540;1186;22915;-60
2021/10/27 04:15:20;;;;;;;12.90;7.20;;;;;;;11.49;48.38;101586.17;117429;1183;21857;-61
2021/10/27 04:17:49;;;;;;;17.70;8.40;;;;;;;11.49;48.47;101587.77;117467;1186;22915;-60
2021/10/27 04:20:17;;;;;;;18.50;7.00;;;;;;;11.49;48.37;101583.72;117519;1182;21866;-60
2021/10/27 04:22:45;;;;;;;27.90;10.00;;;;;;;11.49;48.59;101583.19;117328;1185;21848;-58
2021/10/27 04:25:13;;;;;;;35.60;10.80;;;;;;;11.51;48.51;101580.55;117495;1184;21864;-60
2021/10/27 04:27:42;;;;;;;32.50;9.70;;;;;;;11.51;48.44;101580.38;117499;1184;21931;-60
2021/10/27 04:30:11;;;;;;;45.60;11.70;;;;;;;11.52;48.31;101583.02;117601;1183;24160;-58
2021/10/27 04:32:41;;;;;;;35.30;10.50;;;;;;;11.53;48.60;101588.66;117418;1186;23451;-60
2021/10/27 04:35:10;;;;;;;84.90;16.20;;;;;;;11.53;48.51;101584.44;117345;1186;21854;-61
2021/10/27 04:37:40;;;;;;;89.40;15.80;;;;;;;11.53;48.50;101583.38;117493;1180;21856;-57
2021/10/27 04:40:10;;;;;;;94.30;18.50;;;;;;;11.53;48.57;101584.61;117401;1186;21844;-58
2021/10/27 04:42:38;;;;;;;;;;;;;;;11.55;48.71;101589.71;117404;1184;21841;-59
2021/10/27 04:45:07;;;;;;;80.80;15.80;;;;;;;11.54;48.56;101588.30;117359;1186;21854;-57
2021/10/27 04:47:36;;;;;;;73.40;13.90;;;;;;;11.53;48.58;101586.36;117351;1186;22906;-58
2021/10/27 04:50:06;;;;;;;48.40;12.70;;;;;;;11.53;48.65;101584.43;117401;1185;22674;-60
2021/10/27 04:52:34;;;;;;;42.20;12.90;;;;;;;11.54;48.63;101582.67;117338;1185;22011;-58
2021/10/27 04:55:03;;;;;;;45.70;10.70;;;;;;;11.56;48.73;101584.63;117345;1185;21860;-58
2021/10/27 04:57:32;;;;;;;41.50;12.30;;;;;;;11.58;48.73;101584.64;117389;1184;23454;-60
2021/10/27 05:00:00;;;;;;;47.00;11.20;;;;;;;11.59;48.60;101584.29;117381;1186;23829;-60
2021/10/27 05:02:29;;;;;;;72.10;14.30;;;;;;;11.60;48.68;101589.73;117403;1186;21848;-58
2021/10/27 05:04:58;;;;;;;62.40;13.20;;;;;;;11.60;48.75;101592.02;117367;1185;23441;-58
2021/10/27 05:07:27;;;;;;;63.30;14.90;;;;;;;11.58;48.62;101591.84;117335;1185;23454;-60
2021/10/27 05:09:56;;;;;;;67.20;13.90;;;;;;;11.60;48.80;101596.06;117396;1185;23680;-60
2021/10/27 05:12:25;;;;;;;78.80;14.80;;;;;;;11.65;48.70;101598.02;117308;1184;23274;-58
2021/10/27 05:14:55;;;;;;;57.00;12.90;;;;;;;11.67;48.72;101603.30;117325;1186;23446;-58
2021/10/27 05:17:23;;;;;;;43.20;11.10;;;;;;;11.73;48.85;101601.36;117329;1185;21852;-60
2021/10/27 05:19:51;;;;;;;29.60;9.90;;;;;;;11.78;48.80;101599.63;117321;1187;21895;-59
2021/10/27 05:22:19;;;;;;;50.20;11.50;;;;;;;11.78;48.61;101598.39;117366;1185;21868;-58
2021/10/27 05:24:47;;;;;;;31.30;8.70;;;;;;;11.83;48.74;101604.91;117387;1185;21861;-61
2021/10/27 05:27:16;;;;;;;27.00;8.40;;;;;;;11.86;48.64;101606.85;117346;1184;21858;-59
2021/10/27 05:29:44;;;;;;;18.90;7.40;;;;;;;11.87;48.68;101611.60;117393;1186;23834;-60
2021/10/27 05:32:12;;;;;;;14.70;7.30;;;;;;;11.90;48.66;101612.50;117351;1186;21848;-60
2021/10/27 05:34:42;;;;;;;15.70;7.20;;;;;;;11.94;48.66;101616.70;117340;1186;22944;-61
2021/10/27 05:37:11;;;;;;;14.20;7.60;;;;;;;11.98;48.72;101616.17;117315;1187;21857;-56
2021/10/27 05:39:39;;;;;;;14.30;7.90;;;;;;;12.00;48.62;101618.15;117391;1185;23446;-58
2021/10/27 05:42:11;;;;;;;15.80;7.60;;;;;;;12.04;48.93;101621.33;117409;1186;23570;-57
2021/10/27 05:44:40;;;;;;;11.00;5.60;;;;;;;12.08;48.78;101627.51;117399;1183;23547;-57
2021/10/27 05:47:09;;;;;;;13.40;6.40;;;;;;;12.12;48.68;101635.07;117395;1188;24226;-58
2021/10/27 05:49:54;;;;;;;9.60;5.60;;;;;;;12.28;48.51;101637.55;117397;1184;21890;-58
2021/10/27 05:57:39;;;;;;;15.50;6.80;;;;;;;12.41;48.51;101643.37;117486;1186;21858;-58
2021/10/27 06:00:08;;;;;;;15.50;6.50;;;;;;;12.33;48.66;101644.60;117313;1185;22307;-61
2021/10/27 06:02:37;;;;;;;11.20;6.40;;;;;;;12.35;48.87;101645.66;117353;1182;22582;-59
2021/10/27 06:05:06;;;;;;;10.80;5.30;;;;;;;12.37;48.95;101648.81;117302;1183;24875;-61
2021/10/27 06:07:35;;;;;;;9.40;5.20;;;;;;;12.40;48.97;101653.03;117311;1186;21855;-59
2021/10/27 06:10:05;;;;;;;10.60;5.20;;;;;;;12.44;49.00;101655.86;117320;1186;23545;-59
2021/10/27 06:12:33;;;;;;;8.60;5.40;;;;;;;12.49;48.90;101657.45;117343;1185;21848;-59
2021/10/27 06:15:02;;;;;;;13.50;6.10;;;;;;;12.53;49.07;101658.34;117335;1182;23547;-59
2021/10/27 06:17:32;;;;;;;8.70;5.00;;;;;;;12.57;49.12;101657.63;117357;1185;21873;-59
2021/10/27 06:20:00;;;;;;;13.60;6.20;;;;;;;12.61;49.06;101660.98;117348;1185;21857;-58
2021/10/27 06:22:28;;;;;;;8.40;5.40;;;;;;;12.67;49.10;101658.49;117403;1185;24163;-60
2021/10/27 06:25:00;;;;;;;9.20;5.00;;;;;;;12.73;48.95;101657.10;117467;1182;23566;-60
2021/10/27 06:27:28;;;;;;;9.70;4.90;;;;;;;12.76;49.14;101659.55;117363;1183;23468;-58
2021/10/27 06:30:04;;;;;;;9.80;4.40;;;;;;;12.79;49.00;101660.61;117302;1185;23490;-58
2021/10/27 06:32:47;;;;;;;8.30;4.60;;;;;;;12.83;49.00;101663.41;117336;1185;21896;-61
2021/10/27 06:35:20;;;;;;;8.00;4.40;;;;;;;12.87;49.11;101658.83;117351;1185;21861;-58
2021/10/27 06:48:27;;;;;;;9.30;4.40;;;;;;;13.27;48.74;101661.39;117326;1185;21880;-59
2021/10/27 06:51:09;;;;;;;9.10;4.60;;;;;;;13.31;48.88;101659.45;119619;1183;21775;-59
2021/10/27 06:53:38;;;;;;;11.80;4.70;;;;;;;13.27;49.06;101659.63;118897;1185;22904;-58
2021/10/27 06:56:11;;;;;;;8.60;4.70;;;;;;;13.33;49.12;101658.02;117451;1183;22905;-58
2021/10/27 06:59:27;;;;;;;7.90;4.20;;;;;;;13.41;49.19;101655.20;117511;1186;23469;-58
2021/10/27 07:15:10;;;;;;;8.90;5.30;;;;;;;13.82;49.10;101649.91;117530;1184;24140;-61
2021/10/27 07:17:47;;;;;;;16.40;5.60;;;;;;;13.88;49.10;101646.89;117517;1185;21872;-59
2021/10/27 07:20:15;;;;;;;38.70;22.60;;;;;;;13.95;49.06;101642.95;117332;1183;21868;-58
2021/10/27 07:22:44;;;;;;;15.20;9.90;;;;;;;14.02;49.25;101632.49;117396;1182;23478;-61
2021/10/27 07:25:14;;;;;;;13.00;6.70;;;;;;;14.10;49.11;101629.45;117376;1183;22837;-60
2021/10/27 07:27:43;;;;;;;13.70;5.80;;;;;;;14.18;49.10;101626.57;117481;1185;21847;-61
2021/10/27 07:30:12;;;;;;;7.90;5.10;;;;;;;14.26;49.21;101626.68;117469;1184;21845;-60
2021/10/27 07:32:40;;;;;;;15.20;5.70;;;;;;;14.34;49.18;101626.98;117445;1183;22272;-60
2021/10/27 07:40:35;;;;;;;10.30;4.50;;;;;;;14.61;49.11;101612.59;117366;1185;22625;-60
2021/10/27 07:43:09;;;;;;;10.30;3.60;;;;;;;14.69;49.15;101615.04;117420;1185;22941;-63
2021/10/27 07:45:38;;;;;;;6.30;3.60;;;;;;;14.77;49.10;101614.27;117418;1186;21858;-61
2021/10/27 07:48:07;;;;;;;7.00;3.30;;;;;;;14.84;49.11;101616.66;117430;1183;22618;-62
2021/10/27 07:50:36;;;;;;;6.80;3.10;;;;;;;14.92;49.03;101620.83;117452;1182;23464;-60
2021/10/27 07:53:09;;;;;;;4.40;2.70;;;;;;;15.00;49.08;101614.55;117532;1182;22837;-59
2021/10/27 07:55:42;;;;;;;12.60;6.50;;;;;;;15.08;49.02;101608.98;117485;1184;22957;-62
2021/10/27 07:58:11;;;;;;;5.30;3.10;;;;;;;15.14;49.08;101606.42;117480;1183;21854;-59
2021/10/27 08:00:39;;;;;;;7.10;3.20;;;;;;;15.21;48.97;101600.17;117322;1186;21858;-62
2021/10/27 08:03:09;;;;;;;7.10;3.60;;;;;;;15.28;48.96;101603.26;117420;1185;21854;-62
2021/10/27 08:05:40;;;;;;;6.50;3.30;;;;;;;15.39;48.91;101601.90;117390;1182;22918;-63
2021/10/27 08:08:13;;;;;;;5.20;3.20;;;;;;;15.46;48.80;101595.97;117520;1185;22635;-62
2021/10/27 08:10:42;;;;;;;12.20;4.70;;;;;;;15.54;48.97;101594.45;117468;1185;21847;-57
2021/10/27 08:13:10;;;;;;;17.70;4.90;;;;;;;15.64;48.93;101595.02;117362;1185;21912;-63
2021/10/27 08:15:42;;;;;;;18.40;8.50;;;;;;;15.74;48.90;101587.78;117455;1185;22094;-61
2021/10/27 08:18:12;;;;;;;11.30;3.60;;;;;;;15.83;48.82;101587.49;117399;1183;22748;-64
2021/10/27 08:20:41;;;;;;;5.80;3.30;;;;;;;15.91;48.83;101587.57;117452;1179;22914;-63
2021/10/27 08:23:12;;;;;;;6.70;3.30;;;;;;;15.95;48.69;101586.98;117503;1185;21855;-60
2021/10/27 08:25:49;;;;;;;9.90;4.60;;;;;;;16.00;48.72;101591.51;117549;1184;22683;-60
2021/10/27 08:28:20;;;;;;;7.20;3.30;;;;;;;16.09;48.74;101593.85;117541;1183;21888;-60
2021/10/27 08:31:01;;;;;;;6.70;3.30;;;;;;;16.16;48.61;101596.58;117495;1184;23576;-60
2021/10/27 08:33:44;;;;;;;8.20;4.00;;;;;;;16.20;48.59;101593.14;117511;1183;23461;-60
2021/10/27 08:36:13;;;;;;;6.00;2.70;;;;;;;16.22;48.48;101597.54;117450;1186;21860;-63
2021/10/27 08:38:41;;;;;;;23.40;6.70;;;;;;;16.24;48.42;101600.17;117425;1188;21857;-60
2021/10/27 08:41:31;;;;;;;6.50;2.40;;;;;;;16.22;48.39;101597.53;117394;1185;23466;-60
2021/10/27 08:44:00;;;;;;;13.80;6.60;;;;;;;16.18;48.29;101601.48;117467;1186;21858;-60
2021/10/27 08:46:29;;;;;;;9.70;5.30;;;;;;;16.15;48.21;101598.70;117438;1186;21882;-62
2021/10/27 08:49:03;;;;;;;4.80;2.00;;;;;;;16.13;48.27;101592.00;117272;1186;23641;-63
2021/10/27 08:51:32;;;;;;;8.10;3.60;;;;;;;16.12;48.19;101592.91;117403;1183;22905;-59
2021/10/27 08:54:01;;;;;;;14.60;7.60;;;;;;;16.12;48.15;101589.02;117381;1184;21864;-63
2021/10/27 08:56:40;;;;;;;13.50;7.90;;;;;;;16.09;48.19;101589.79;117466;1185;22594;-59
2021/10/27 09:07:29;;;;;;;3.20;1.60;;;;;;;16.26;48.12;101568.95;117260;1184;23448;-63
2021/10/27 09:15:50;;;;;;;7.20;3.50;;;;;;;16.39;48.04;101579.18;117500;1184;23436;-57
2021/10/27 10:04:30;;;;;;;8.40;3.20;;;;;;;16.58;47.51;101563.80;117460;1185;21888;-59
2021/10/27 10:07:03;;;;;;;6.80;4.70;;;;;;;16.53;47.56;101555.02;117325;1183;21908;-63
2021/10/27 10:09:33;;;;;;;9.50;5.50;;;;;;;16.53;47.58;101556.97;117485;1183;21916;-58
2021/10/27 10:12:02;;;;;;;5.60;3.20;;;;;;;16.56;47.59;101547.88;117413;1186;23447;-59
2021/10/27 10:14:31;;;;;;;5.50;2.70;;;;;;;16.58;47.52;101548.73;117345;1185;21865;-59
2021/10/27 10:17:04;;;;;;;5.40;2.20;;;;;;;16.59;47.57;101537.02;117306;1186;22927;-58
2021/10/27 10:19:35;;;;;;;4.30;2.10;;;;;;;16.61;47.52;101533.07;117340;1186;23442;-59
2021/10/27 10:22:06;;;;;;;5.30;2.30;;;;;;;16.62;47.52;101535.00;117420;1183;21865;-59
2021/10/27 10:24:38;;;;;;;4.20;1.60;;;;;;;16.65;47.56;101537.09;117451;1186;21858;-58
2021/10/27 10:27:16;;;;;;;4.60;2.50;;;;;;;16.70;47.50;101533.97;117365;1186;23469;-62
2021/10/27 10:29:54;;;;;;;4.60;2.10;;;;;;;16.75;47.41;101525.02;117375;1183;24143;-63
2021/10/27 10:32:30;;;;;;;3.60;2.30;;;;;;;16.80;47.53;101522.42;117385;1183;24189;-59
2021/10/27 10:35:14;;;;;;;7.20;2.50;;;;;;;16.87;47.62;101523.17;117429;1184;23494;-63
2021/10/27 10:43:09;;;;;;;4.30;2.60;;;;;;;17.07;47.39;101511.81;117491;1182;22555;-59
2021/10/27 10:45:53;;;;;;;5.20;2.20;;;;;;;17.11;47.35;101509.08;117511;1185;21879;-59
2021/10/27 11:40:44;;;;;;;8.00;3.20;;;;;;;18.09;47.45;101456.91;117209;1186;22970;-65
2021/10/27 11:51:12;;;;;;;4.50;2.10;;;;;;;18.34;46.91;101456.41;117116;1186;23549;-64
2021/10/27 11:53:46;;;;;;;6.20;2.80;;;;;;;18.23;46.72;101450.29;117142;1186;22176;-60
2021/10/27 11:56:21;;;;;;;11.90;3.00;;;;;;;18.12;46.67;101451.13;117152;1186;23560;-60
2021/10/27 11:58:56;;;;;;;8.30;2.70;;;;;;;18.08;46.64;101449.67;117439;1186;21908;-60
2021/10/27 12:01:51;;;;;;;10.20;3.10;;;;;;;18.09;46.71;101438.23;117409;1185;23567;-64
2021/10/27 12:04:20;;;;;;;19.70;7.10;;;;;;;18.27;47.01;101438.48;117495;1182;23442;-65
2021/10/27 12:06:57;;;;;;;53.60;16.90;;;;;;;18.49;47.03;101440.88;117568;1185;22610;-65
2021/10/27 12:12:12;;;;;;;5.80;3.00;;;;;;;18.67;46.73;101442.67;117529;1186;21855;-62
2021/10/27 12:18:11;;;;;;;24.80;9.30;;;;;;;18.94;46.62;101437.81;116836;1186;21867;-60
2021/10/27 12:20:56;;;;;;;6.90;3.00;;;;;;;18.99;46.50;101435.17;116801;1186;23564;-58
2021/10/27 12:23:27;;;;;;;6.10;2.80;;;;;;;18.95;46.25;101438.49;118553;1186;24172;-62
2021/10/27 12:26:11;;;;;;;14.90;6.80;;;;;;;18.83;46.20;101434.90;118563;1189;22029;-62
2021/10/27 12:28:41;;;;;;;11.20;4.80;;;;;;;18.69;46.15;101438.00;116839;1186;21871;-57
2021/10/27 12:31:22;;;;;;;8.30;3.10;;;;;;;18.54;46.12;101439.31;116723;1189;21866;-57
2021/10/27 12:33:51;;;;;;;5.10;2.50;;;;;;;18.47;46.24;101438.28;116814;1189;23014;-62
2021/10/27 12:36:28;;;;;;;4.90;2.50;;;;;;;18.43;46.26;101437.86;116841;1189;21877;-64
2021/10/27 12:39:08;;;;;;;6.60;2.70;;;;;;;18.39;46.25;101436.52;116850;1189;21880;-64
2021/10/27 12:41:36;;;;;;;7.80;2.80;;;;;;;18.43;46.35;101430.02;116878;1189;21867;-60
2021/10/27 12:44:22;;;;;;;9.30;3.70;;;;;;;18.58;46.49;101431.02;116869;1186;21866;-59
2021/10/27 12:47:14;;;;;;;15.80;7.10;;;;;;;18.76;46.37;101431.40;116851;1186;24218;-58
2021/10/27 12:49:46;;;;;;;20.60;7.50;;;;;;;18.93;46.43;101430.20;116885;1185;23053;-62
2021/10/27 12:52:22;;;;;;;12.20;4.30;;;;;;;19.09;46.49;101430.80;116943;1186;22999;-58
2021/10/27 12:55:28;;;;;;;5.30;2.40;;;;;;;19.14;46.29;101431.52;117381;1186;21870;-58
2021/10/27 12:58:15;;;;;;;15.60;5.50;;;;;;;19.11;46.10;101430.17;117355;1186;21901;-63
2021/10/27 13:00:54;;;;;;;28.40;9.40;;;;;;;19.00;45.84;101435.34;117296;1185;21881;-58
2021/10/27 13:06:16;;;;;;;15.30;10.20;;;;;;;18.62;45.69;101431.45;117323;1182;23544;-61
2021/10/27 13:08:56;;;;;;;15.60;6.90;;;;;;;18.45;45.71;101429.07;117406;1186;21881;-58
2021/10/27 13:31:12;;;;;;;12.90;5.30;;;;;;;17.76;45.81;101427.54;117470;1182;21858;-63
2021/10/27 13:33:13;;;;;;;19.60;7.70;;;;;;;17.77;45.72;101420.23;117319;1186;21858;-62
2021/10/27 13:35:42;;;;;;;20.70;8.00;;;;;;;17.79;45.75;101419.83;117586;1182;22884;-59
2021/10/27 13:38:11;;;;;;;18.90;7.20;;;;;;;17.80;45.76;101421.57;117518;1183;21940;-58
2021/10/27 13:40:43;;;;;;;11.90;4.90;;;;;;;17.81;45.80;101421.55;117492;1182;21858;-58
2021/10/27 13:43:38;;;;;;;25.40;4.50;;;;;;;17.87;45.74;101415.34;117506;1182;21926;-59
2021/10/27 14:11:19;;;;;;;34.30;11.90;;;;;;;17.85;45.44;101431.39;117330;1182;23444;-61
2021/10/27 14:19:13;;;;;;;79.10;26.70;;;;;;;17.56;45.14;101434.06;117367;1183;21857;-59
2021/10/27 15:20:41;;;;;;;56.50;24.50;;;;;;;14.35;44.93;101478.66;117418;1185;21848;-61
2021/10/27 15:37:15;;;;;;;32.50;15.50;;;;;;;13.39;44.89;101495.30;117340;1182;22595;-58
2021/10/27 15:42:54;;;;;;;25.70;10.20;;;;;;;13.08;44.85;101491.94;117330;1185;21871;-58
2021/10/27 15:51:02;;;;;;;16.20;7.90;;;;;;;12.67;44.79;101498.79;117376;1183;21862;-61
2021/10/27 15:53:35;;;;;;;20.20;8.80;;;;;;;12.56;45.04;101508.14;117250;1182;23459;-58
2021/10/27 15:56:04;;;;;;;16.20;7.40;;;;;;;12.45;44.91;101517.50;117307;1180;23396;-61
2021/10/27 15:58:35;;;;;;;;;;;;;;;12.31;44.80;101523.33;117440;1176;23616;-60
2021/10/27 16:01:03;;;;;;;17.40;9.40;;;;;;;12.18;44.75;101520.70;117458;1183;21855;-61
2021/10/27 16:03:32;;;;;;;19.80;9.10;;;;;;;12.13;44.92;101521.95;117374;1183;24302;-57
2021/10/27 16:06:02;;;;;;;20.30;10.40;;;;;;;12.06;44.94;101527.91;117358;1182;21858;-61
2021/10/27 16:08:37;;;;;;;25.20;13.10;;;;;;;11.99;44.99;101530.19;117221;1186;22935;-58
2021/10/27 16:11:06;;;;;;;91.50;50.80;;;;;;;12.01;44.79;101529.50;117377;1185;22629;-58
2021/10/27 16:13:37;;;;;;;108.10;60.10;;;;;;;11.97;44.99;101534.22;117336;1186;21867;-57
2021/10/27 16:16:08;;;;;;;198.80;81.40;;;;;;;11.84;45.05;101541.60;117379;1183;21858;-60
2021/10/27 16:18:37;;;;;;;86.90;40.90;;;;;;;11.78;45.01;101548.98;117362;1184;21860;-57
2021/10/27 16:21:06;;;;;;;54.20;26.60;;;;;;;11.76;45.12;101550.20;117420;1185;23567;-61
2021/10/27 16:23:35;;;;;;;47.20;23.20;;;;;;;11.74;45.29;101546.16;117331;1182;21870;-57
2021/10/27 16:26:10;;;;;;;55.10;26.60;;;;;;;11.73;45.25;101553.71;117396;1183;21858;-61
2021/10/27 16:28:44;;;;;;;77.60;37.50;;;;;;;11.71;45.20;101555.29;117417;1183;23440;-58
2021/10/27 16:31:13;;;;;;;56.40;27.00;;;;;;;11.69;45.14;101556.88;117398;1182;21873;-58